createdAt,value
2019-03-21T00:02:17.035Z,0.42
2019-03-21T00:07:26.251Z,0.27
2019-03-21T00:12:35.527Z,0.32
2019-03-21T00:17:44.708Z,0.21
2019-03-21T00:22:54.072Z,0.28
2019-03-21T00:28:03.267Z,0.33
2019-03-21T00:33:12.512Z,0.57
2019-03-21T00:38:21.707Z,0.38
2019-03-21T00:43:30.935Z,0.28
2019-03-21T00:48:40.123Z,0.34
2019-03-21T00:53:49.527Z,0.32
2019-03-21T00:58:58.721Z,0.55
2019-03-21T01:04:08.231Z,0.46
2019-03-21T01:09:17.487Z,0.40
2019-03-21T01:14:29.980Z,0.57
2019-03-21T01:19:35.889Z,0.33
2019-03-21T01:24:45.248Z,0.40
2019-03-21T01:29:54.491Z,0.25
2019-03-21T01:35:03.935Z,0.39
2019-03-21T01:40:13.206Z,0.34
2019-03-21T01:45:22.645Z,0.36
2019-03-21T01:50:31.838Z,0.31
2019-03-21T01:55:41.158Z,0.51
2019-03-21T02:00:50.348Z,0.26
2019-03-21T02:05:59.581Z,0.28
2019-03-21T02:11:08.813Z,0.47
2019-03-21T02:16:18.195Z,0.70
2019-03-21T02:21:27.397Z,0.72
2019-03-21T02:26:36.682Z,0.23
2019-03-21T02:31:46.036Z,0.34
2019-03-21T02:36:55.376Z,0.36
2019-03-21T02:42:05.426Z,0.67
2019-03-21T02:47:14.519Z,0.45
2019-03-21T02:52:23.726Z,0.37
2019-03-21T02:57:33.246Z,0.38
2019-03-21T03:02:42.484Z,0.39
2019-03-21T03:07:51.723Z,0.23
2019-03-21T03:13:00.909Z,0.22
2019-03-21T03:18:10.308Z,0.53
2019-03-21T03:23:19.572Z,0.47
2019-03-21T03:28:28.930Z,0.33
2019-03-21T03:33:38.178Z,0.31
2019-03-21T03:38:47.456Z,0.22
2019-03-21T03:43:56.767Z,0.37
2019-03-21T03:49:06.010Z,0.50
2019-03-21T03:54:15.307Z,0.34
2019-03-21T03:59:24.631Z,0.42
2019-03-21T04:04:33.989Z,0.32
2019-03-21T04:09:43.272Z,0.33
2019-03-21T04:14:52.468Z,0.42
2019-03-21T04:20:01.732Z,0.43
2019-03-21T04:25:10.953Z,0.74
2019-03-21T04:30:20.355Z,0.30
2019-03-21T04:35:29.487Z,0.30
2019-03-21T04:40:38.740Z,0.40
2019-03-21T04:45:48.041Z,0.33
2019-03-21T04:50:57.339Z,0.30
2019-03-21T04:56:06.576Z,0.33
2019-03-21T05:01:15.831Z,0.38
2019-03-21T05:06:25.273Z,0.26
2019-03-21T05:11:34.487Z,0.37
2019-03-21T05:16:43.783Z,0.25
2019-03-21T05:21:52.964Z,0.26
2019-03-21T05:27:02.324Z,0.30
2019-03-21T05:32:11.974Z,0.29
2019-03-21T05:37:21.249Z,0.46
2019-03-21T05:42:30.695Z,0.35
2019-03-21T05:47:39.897Z,0.35
2019-03-21T05:52:50.170Z,0.31
2019-03-21T05:57:49.424Z,0.46
2019-03-21T06:02:58.788Z,0.37
2019-03-21T06:08:08.109Z,0.25
2019-03-21T06:13:17.303Z,0.36
2019-03-21T06:18:26.665Z,0.47
2019-03-21T06:23:36.093Z,0.27
2019-03-21T06:28:45.418Z,0.51
2019-03-21T06:33:54.708Z,0.41
2019-03-21T06:39:04.027Z,0.49
2019-03-21T06:44:13.306Z,0.28
2019-03-21T06:49:22.883Z,0.70
2019-03-21T06:54:32.123Z,0.57
2019-03-21T06:59:41.666Z,0.23
2019-03-21T07:04:50.965Z,0.43
2019-03-21T07:10:00.475Z,0.23
2019-03-21T07:15:09.620Z,0.34
2019-03-21T07:20:19.053Z,0.53
2019-03-21T07:25:28.289Z,0.58
2019-03-21T07:30:37.691Z,0.43
2019-03-21T07:35:46.973Z,0.26
2019-03-21T07:40:56.360Z,0.39
2019-03-21T07:46:05.604Z,0.57
2019-03-21T07:51:14.958Z,0.30
2019-03-21T07:56:25.120Z,0.34
2019-03-21T08:01:33.167Z,0.36
2019-03-21T08:06:42.453Z,0.46
2019-03-21T08:11:51.715Z,0.35
2019-03-21T08:17:01.055Z,0.55
2019-03-21T08:22:10.373Z,0.42
2019-03-21T08:27:19.768Z,0.39
2019-03-21T08:32:29.137Z,0.63
2019-03-21T08:37:38.400Z,0.44
2019-03-21T08:42:47.755Z,0.62
2019-03-21T08:47:57.112Z,0.38
2019-03-21T08:53:06.427Z,0.49
2019-03-21T08:58:15.888Z,0.41
2019-03-21T09:03:25.162Z,0.30
2019-03-21T09:08:34.426Z,0.53
2019-03-21T09:13:43.675Z,0.56
2019-03-21T09:18:53.004Z,0.34
2019-03-21T09:24:02.270Z,0.27
2019-03-21T09:29:11.627Z,0.37
2019-03-21T09:34:20.967Z,0.41
2019-03-21T09:39:30.339Z,0.28
2019-03-21T09:44:39.703Z,0.36
2019-03-21T09:49:49.026Z,0.34
2019-03-21T09:54:58.413Z,0.57
2019-03-21T10:00:07.807Z,0.27
2019-03-21T10:05:17.031Z,0.25
2019-03-21T10:10:26.306Z,0.29
2019-03-21T10:15:35.583Z,0.25
2019-03-21T10:20:44.967Z,0.33
2019-03-21T10:25:54.355Z,0.29
2019-03-21T10:31:03.690Z,0.39
2019-03-21T10:36:13.006Z,0.36
2019-03-21T10:41:22.350Z,0.25
2019-03-21T10:46:31.700Z,0.17
2019-03-21T10:51:40.938Z,0.21
2019-03-21T10:56:50.228Z,0.27
2019-03-21T11:02:07.316Z,0.13
2019-03-21T11:07:08.364Z,0.33
2019-03-21T11:12:17.707Z,0.18
2019-03-21T11:17:26.994Z,0.17
2019-03-21T11:22:36.232Z,0.23
2019-03-21T11:27:45.585Z,0.44
2019-03-21T11:32:54.891Z,0.17
2019-03-21T11:38:04.311Z,0.28
2019-03-21T11:43:13.577Z,0.23
2019-03-21T11:48:22.923Z,0.21
2019-03-21T11:53:32.184Z,0.14
2019-03-21T11:58:41.631Z,0.15
2019-03-21T12:03:50.902Z,0.32
2019-03-21T12:09:00.247Z,0.24
2019-03-21T12:14:08.009Z,0.18
2019-03-21T12:19:17.423Z,0.25
2019-03-21T12:24:26.653Z,0.16
2019-03-21T12:29:35.911Z,0.17
2019-03-21T12:34:45.164Z,0.28
2019-03-21T12:39:54.524Z,0.32
2019-03-21T12:45:03.790Z,0.20
2019-03-21T12:50:13.246Z,0.19
2019-03-21T12:55:22.512Z,0.16
2019-03-21T13:00:31.755Z,0.19
2019-03-21T13:05:40.990Z,0.42
2019-03-21T13:10:50.339Z,0.20
2019-03-21T13:15:59.694Z,0.27
2019-03-21T13:21:09.073Z,0.20
2019-03-21T13:26:18.316Z,0.20
2019-03-21T13:31:27.659Z,0.17
2019-03-21T13:36:36.895Z,0.29
2019-03-21T13:41:46.183Z,0.35
2019-03-21T13:46:55.503Z,0.24
2019-03-21T13:52:05.065Z,0.21
2019-03-21T13:57:14.211Z,0.22
2019-03-21T14:02:23.485Z,0.26
2019-03-21T14:07:32.708Z,0.20
2019-03-21T14:12:42.066Z,0.24
2019-03-21T14:17:51.322Z,0.17
2019-03-21T14:23:00.686Z,0.16
2019-03-21T14:28:10.044Z,0.22
2019-03-21T14:33:19.392Z,0.20
2019-03-21T14:38:28.744Z,0.35
2019-03-21T14:43:37.980Z,0.13
2019-03-21T14:48:47.231Z,0.23
2019-03-21T14:53:56.491Z,0.21
2019-03-21T14:59:05.892Z,0.09
2019-03-21T15:04:15.324Z,0.21
2019-03-21T15:09:24.571Z,0.28
2019-03-21T15:14:34.023Z,0.15
2019-03-21T15:19:43.366Z,0.16
2019-03-21T15:24:52.793Z,0.16
2019-03-21T15:30:02.267Z,0.32
2019-03-21T15:35:11.570Z,0.18
2019-03-21T15:40:21.003Z,0.49
2019-03-21T15:45:30.368Z,0.45
2019-03-21T15:50:39.694Z,0.31
2019-03-21T15:55:49.127Z,0.29
2019-03-21T16:00:58.421Z,0.37
2019-03-21T16:06:08.067Z,0.26
2019-03-21T16:11:17.369Z,0.18
2019-03-21T16:16:26.789Z,0.27
2019-03-21T16:21:35.998Z,0.13
2019-03-21T16:26:45.410Z,0.31
2019-03-21T16:31:54.652Z,0.26
2019-03-21T16:37:04.200Z,0.37
2019-03-21T16:42:13.572Z,0.26
2019-03-21T16:47:22.927Z,0.19
2019-03-21T16:52:32.256Z,0.20
2019-03-21T16:57:41.703Z,0.25
2019-03-21T17:02:51.074Z,0.47
2019-03-21T17:08:10.562Z,0.16
2019-03-21T17:13:10.242Z,0.46
2019-03-21T17:18:18.930Z,0.38
2019-03-21T17:23:28.186Z,0.22
2019-03-21T17:28:37.556Z,0.19
2019-03-21T17:33:46.896Z,0.42
2019-03-21T17:38:56.254Z,0.23
2019-03-21T17:44:05.615Z,0.26
2019-03-21T17:49:15.067Z,0.26
2019-03-21T17:54:24.389Z,0.29
2019-03-21T17:59:34.160Z,0.18
2019-03-21T18:04:43.410Z,0.26
2019-03-21T18:09:52.759Z,0.31
2019-03-21T18:15:01.980Z,0.23
2019-03-21T18:20:11.521Z,0.22
2019-03-21T18:25:20.861Z,0.33
2019-03-21T18:30:30.194Z,0.26
2019-03-21T18:35:39.538Z,0.45
2019-03-21T18:40:48.903Z,0.89
2019-03-21T18:45:58.239Z,0.83
2019-03-21T18:51:07.607Z,0.68
2019-03-21T18:56:16.854Z,0.67
2019-03-21T19:01:26.157Z,0.37
2019-03-21T19:06:35.490Z,0.37
2019-03-21T19:11:44.736Z,0.69
2019-03-21T19:16:54.053Z,0.55
2019-03-21T19:22:03.430Z,0.48
2019-03-21T19:27:12.641Z,0.42
2019-03-21T19:32:21.987Z,0.51
2019-03-21T19:37:31.225Z,0.53
2019-03-21T19:42:40.607Z,0.62
2019-03-21T19:47:49.878Z,0.72
2019-03-21T19:52:59.534Z,0.61
2019-03-21T19:58:08.774Z,0.61
2019-03-21T20:03:18.056Z,0.62
2019-03-21T20:08:27.291Z,0.69
2019-03-21T20:13:36.651Z,0.53
2019-03-21T20:18:45.871Z,0.41
2019-03-21T20:23:55.151Z,0.80
2019-03-21T20:29:04.388Z,0.64
2019-03-21T20:34:13.768Z,0.75
2019-03-21T20:39:23.111Z,1.03
2019-03-21T20:44:32.477Z,0.92
2019-03-21T20:49:41.709Z,0.76
2019-03-21T20:54:51.027Z,0.64
2019-03-21T21:00:00.413Z,0.41
2019-03-21T21:05:09.564Z,0.49
2019-03-21T21:10:22.788Z,0.64
2019-03-21T21:15:21.055Z,0.44
2019-03-21T21:20:30.366Z,0.46
2019-03-21T21:25:39.549Z,0.41
2019-03-21T21:30:48.803Z,0.67
2019-03-21T21:35:58.002Z,0.43
2019-03-21T21:41:07.426Z,0.54
2019-03-21T21:46:16.655Z,0.40
2019-03-21T21:51:26.024Z,0.72
2019-03-21T21:56:35.327Z,0.51
2019-03-21T22:01:44.711Z,0.49
2019-03-21T22:06:54.043Z,0.46
2019-03-21T22:12:03.298Z,0.58
2019-03-21T22:17:12.539Z,0.70
2019-03-21T22:22:21.834Z,0.69
2019-03-21T22:27:31.257Z,0.42
2019-03-21T22:32:40.446Z,0.43
2019-03-21T22:37:49.723Z,0.49
2019-03-21T22:42:58.994Z,0.47
2019-03-21T22:48:08.540Z,0.71
2019-03-21T22:53:17.808Z,0.52
2019-03-21T22:58:31.611Z,0.46
2019-03-21T23:03:35.896Z,0.51
2019-03-21T23:08:45.127Z,0.40
2019-03-21T23:13:54.314Z,0.42
2019-03-21T23:19:03.591Z,0.69
2019-03-21T23:24:12.894Z,0.55
2019-03-21T23:29:22.154Z,0.62
2019-03-21T23:34:31.414Z,0.59
2019-03-21T23:39:40.659Z,0.69
2019-03-21T23:44:49.910Z,0.52
2019-03-21T23:49:59.086Z,0.57
2019-03-21T23:55:08.343Z,0.47
